sensor_id;sensor_type;location;lat;lon;timestamp;pressure;altitude;pressure_sealevel;temperature;humidity
64460;BME280;50828;53.756;21.140;2023-02-10T00:01:44;100873.70;;;-1.12;59.57
64460;BME280;50828;53.756;21.140;2023-02-10T00:06:51;100870.38;;;-1.13;59.59
64460;BME280;50828;53.756;21.140;2023-02-10T00:11:59;100878.15;;;-1.14;59.48
64460;BME280;50828;53.756;21.140;2023-02-10T00:17:07;100876.23;;;-1.16;59.62
64460;BME280;50828;53.756;21.140;2023-02-10T00:22:15;100881.73;;;-1.16;59.55
64460;BME280;50828;53.756;21.140;2023-02-10T00:27:22;100877.75;;;-1.17;59.55
64460;BME280;50828;53.756;21.140;2023-02-10T00:32:30;100874.63;;;-1.18;59.54
64460;BME280;50828;53.756;21.140;2023-02-10T00:37:37;100871.67;;;-1.19;59.39
64460;BME280;50828;53.756;21.140;2023-02-10T00:42:44;100877.34;;;-1.20;59.50
64460;BME280;50828;53.756;21.140;2023-02-10T00:47:52;100879.73;;;-1.21;59.42
64460;BME280;50828;53.756;21.140;2023-02-10T00:52:59;100852.86;;;-1.34;59.39
64460;BME280;50828;53.756;21.140;2023-02-10T00:58:07;100856.77;;;-1.28;59.40
64460;BME280;50828;53.756;21.140;2023-02-10T01:03:14;100848.23;;;-1.32;59.35
64460;BME280;50828;53.756;21.140;2023-02-10T01:08:22;100846.95;;;-1.37;59.32
64460;BME280;50828;53.756;21.140;2023-02-10T01:13:32;100861.76;;;-1.39;59.28
64460;BME280;50828;53.756;21.140;2023-02-10T01:18:40;100867.04;;;-1.42;59.35
64460;BME280;50828;53.756;21.140;2023-02-10T01:23:49;100864.54;;;-1.47;59.31
64460;BME280;50828;53.756;21.140;2023-02-10T01:28:56;100858.77;;;-1.50;59.24
64460;BME280;50828;53.756;21.140;2023-02-10T01:34:03;100862.14;;;-1.54;59.41
64460;BME280;50828;53.756;21.140;2023-02-10T01:39:14;100854.32;;;-1.56;59.26
64460;BME280;50828;53.756;21.140;2023-02-10T01:50:04;100831.39;;;-1.62;59.23
64460;BME280;50828;53.756;21.140;2023-02-10T01:55:15;100828.21;;;-1.66;59.38
64460;BME280;50828;53.756;21.140;2023-02-10T02:00:25;100830.57;;;-1.69;59.43
64460;BME280;50828;53.756;21.140;2023-02-10T02:05:36;100826.70;;;-1.72;59.47
64460;BME280;50828;53.756;21.140;2023-02-10T02:10:57;100828.93;;;-1.72;59.65
64460;BME280;50828;53.756;21.140;2023-02-10T02:16:11;100824.05;;;-1.75;59.78
64460;BME280;50828;53.756;21.140;2023-02-10T02:21:50;100819.92;;;-1.74;60.05
64460;BME280;50828;53.756;21.140;2023-02-10T02:27:24;100811.55;;;-1.70;60.17
64460;BME280;50828;53.756;21.140;2023-02-10T02:32:40;100815.10;;;-1.65;60.25
64460;BME280;50828;53.756;21.140;2023-02-10T02:37:51;100807.40;;;-1.61;60.14
64460;BME280;50828;53.756;21.140;2023-02-10T02:42:59;100793.52;;;-1.55;60.24
64460;BME280;50828;53.756;21.140;2023-02-10T02:48:17;100791.92;;;-1.49;60.30
64460;BME280;50828;53.756;21.140;2023-02-10T02:53:32;100806.52;;;-1.44;60.37
64460;BME280;50828;53.756;21.140;2023-02-10T02:58:47;100816.45;;;-1.40;60.59
64460;BME280;50828;53.756;21.140;2023-02-10T03:03:59;100814.27;;;-1.37;60.61
64460;BME280;50828;53.756;21.140;2023-02-10T03:09:09;100815.23;;;-1.33;60.53
64460;BME280;50828;53.756;21.140;2023-02-10T03:14:17;100806.09;;;-1.31;60.70
64460;BME280;50828;53.756;21.140;2023-02-10T03:19:25;100793.44;;;-1.24;60.58
64460;BME280;50828;53.756;21.140;2023-02-10T03:24:33;100790.60;;;-1.19;60.84
64460;BME280;50828;53.756;21.140;2023-02-10T03:29:41;100808.98;;;-1.15;60.87
64460;BME280;50828;53.756;21.140;2023-02-10T03:34:49;100815.73;;;-1.15;61.12
64460;BME280;50828;53.756;21.140;2023-02-10T03:39:57;100821.11;;;-1.14;61.19
64460;BME280;50828;53.756;21.140;2023-02-10T03:45:05;100821.84;;;-1.12;61.30
64460;BME280;50828;53.756;21.140;2023-02-10T03:50:13;100814.78;;;-1.11;61.35
64460;BME280;50828;53.756;21.140;2023-02-10T03:55:20;100813.39;;;-1.11;61.82
64460;BME280;50828;53.756;21.140;2023-02-10T04:00:28;100798.80;;;-1.15;61.81
64460;BME280;50828;53.756;21.140;2023-02-10T04:05:36;100796.67;;;-1.17;62.11
64460;BME280;50828;53.756;21.140;2023-02-10T04:10:44;100789.55;;;-1.19;62.41
64460;BME280;50828;53.756;21.140;2023-02-10T04:16:01;100784.70;;;-1.20;62.35
64460;BME280;50828;53.756;21.140;2023-02-10T04:21:10;100784.20;;;-1.19;62.62
64460;BME280;50828;53.756;21.140;2023-02-10T04:26:18;100794.72;;;-1.20;62.79
64460;BME280;50828;53.756;21.140;2023-02-10T04:31:25;100797.77;;;-1.23;62.86
64460;BME280;50828;53.756;21.140;2023-02-10T04:36:33;100791.17;;;-1.24;62.93
64460;BME280;50828;53.756;21.140;2023-02-10T04:41:40;100775.44;;;-1.25;63.10
64460;BME280;50828;53.756;21.140;2023-02-10T04:46:48;100772.35;;;-1.23;63.30
64460;BME280;50828;53.756;21.140;2023-02-10T04:51:57;100776.22;;;-1.20;63.30
64460;BME280;50828;53.756;21.140;2023-02-10T04:57:05;100772.64;;;-1.17;63.46
64460;BME280;50828;53.756;21.140;2023-02-10T05:02:12;100762.16;;;-1.15;63.57
64460;BME280;50828;53.756;21.140;2023-02-10T05:07:20;100761.66;;;-1.13;63.45
64460;BME280;50828;53.756;21.140;2023-02-10T05:12:27;100754.62;;;-1.11;63.65
64460;BME280;50828;53.756;21.140;2023-02-10T05:17:35;100752.38;;;-1.11;63.81
64460;BME280;50828;53.756;21.140;2023-02-10T05:22:42;100751.67;;;-1.10;63.86
64460;BME280;50828;53.756;21.140;2023-02-10T05:27:50;100758.60;;;-1.10;63.81
64460;BME280;50828;53.756;21.140;2023-02-10T05:32:57;100769.86;;;-1.09;63.72
64460;BME280;50828;53.756;21.140;2023-02-10T05:38:05;100780.23;;;-1.09;63.88
64460;BME280;50828;53.756;21.140;2023-02-10T05:43:12;100788.52;;;-1.09;63.93
64460;BME280;50828;53.756;21.140;2023-02-10T05:48:20;100784.73;;;-1.08;64.04
64460;BME280;50828;53.756;21.140;2023-02-10T05:53:27;100782.36;;;-1.05;64.37
64460;BME280;50828;53.756;21.140;2023-02-10T05:58:35;100792.60;;;-1.03;64.30
64460;BME280;50828;53.756;21.140;2023-02-10T06:03:43;100793.50;;;-1.01;64.60
64460;BME280;50828;53.756;21.140;2023-02-10T06:08:50;100792.67;;;-0.99;64.48
64460;BME280;50828;53.756;21.140;2023-02-10T06:13:57;100789.25;;;-0.98;64.65
64460;BME280;50828;53.756;21.140;2023-02-10T06:19:05;100783.73;;;-0.97;64.62
64460;BME280;50828;53.756;21.140;2023-02-10T06:24:12;100791.59;;;-0.93;65.00
64460;BME280;50828;53.756;21.140;2023-02-10T06:29:20;100790.77;;;-0.89;64.96
64460;BME280;50828;53.756;21.140;2023-02-10T06:34:28;100785.30;;;-0.85;65.12
64460;BME280;50828;53.756;21.140;2023-02-10T06:39:35;100782.10;;;-0.81;65.23
64460;BME280;50828;53.756;21.140;2023-02-10T06:44:43;100779.06;;;-0.76;65.14
64460;BME280;50828;53.756;21.140;2023-02-10T06:49:50;100784.86;;;-0.71;65.39
64460;BME280;50828;53.756;21.140;2023-02-10T06:54:57;100784.23;;;-0.66;65.49
64460;BME280;50828;53.756;21.140;2023-02-10T07:00:06;100787.73;;;-0.64;65.37
64460;BME280;50828;53.756;21.140;2023-02-10T07:05:15;100798.56;;;-0.58;65.61
64460;BME280;50828;53.756;21.140;2023-02-10T07:10:23;100792.19;;;-0.57;65.82
64460;BME280;50828;53.756;21.140;2023-02-10T07:15:31;100794.27;;;-0.55;65.99
64460;BME280;50828;53.756;21.140;2023-02-10T07:20:39;100801.05;;;-0.53;66.20
64460;BME280;50828;53.756;21.140;2023-02-10T07:25:46;100800.02;;;-0.52;66.34
64460;BME280;50828;53.756;21.140;2023-02-10T07:30:54;100793.33;;;-0.50;66.23
64460;BME280;50828;53.756;21.140;2023-02-10T07:36:02;100789.90;;;-0.48;66.42
64460;BME280;50828;53.756;21.140;2023-02-10T07:41:10;100792.02;;;-0.46;66.43
64460;BME280;50828;53.756;21.140;2023-02-10T07:46:18;100788.76;;;-0.44;66.31
64460;BME280;50828;53.756;21.140;2023-02-10T07:51:25;100797.31;;;-0.39;66.52
64460;BME280;50828;53.756;21.140;2023-02-10T07:56:33;100797.90;;;-0.34;66.74
64460;BME280;50828;53.756;21.140;2023-02-10T08:01:41;100798.16;;;-0.28;66.45
64460;BME280;50828;53.756;21.140;2023-02-10T08:06:49;100801.36;;;-0.22;66.73
64460;BME280;50828;53.756;21.140;2023-02-10T08:11:58;100799.70;;;-0.18;66.81
64460;BME280;50828;53.756;21.140;2023-02-10T08:17:05;100807.89;;;-0.14;66.68
64460;BME280;50828;53.756;21.140;2023-02-10T08:22:13;100813.84;;;-0.09;66.78
64460;BME280;50828;53.756;21.140;2023-02-10T08:27:20;100816.17;;;-0.04;66.73
64460;BME280;50828;53.756;21.140;2023-02-10T08:32:28;100810.87;;;0.01;66.95
64460;BME280;50828;53.756;21.140;2023-02-10T08:37:36;100816.48;;;0.05;66.85
64460;BME280;50828;53.756;21.140;2023-02-10T08:42:43;100817.08;;;0.11;66.85
64460;BME280;50828;53.756;21.140;2023-02-10T08:47:51;100815.11;;;0.20;66.79
64460;BME280;50828;53.756;21.140;2023-02-10T08:52:58;100814.34;;;0.27;66.99
64460;BME280;50828;53.756;21.140;2023-02-10T08:58:05;100823.26;;;0.33;66.90
64460;BME280;50828;53.756;21.140;2023-02-10T09:03:13;100829.56;;;0.38;66.78
64460;BME280;50828;53.756;21.140;2023-02-10T09:08:21;100834.66;;;0.44;66.91
64460;BME280;50828;53.756;21.140;2023-02-10T09:13:28;100841.35;;;0.51;66.90
64460;BME280;50828;53.756;21.140;2023-02-10T09:18:36;100847.99;;;0.57;67.01
64460;BME280;50828;53.756;21.140;2023-02-10T09:23:44;100849.77;;;0.61;67.04
64460;BME280;50828;53.756;21.140;2023-02-10T09:28:51;100858.01;;;0.68;67.10
64460;BME280;50828;53.756;21.140;2023-02-10T09:33:59;100859.11;;;0.73;67.14
64460;BME280;50828;53.756;21.140;2023-02-10T09:39:07;100870.27;;;0.78;67.14
64460;BME280;50828;53.756;21.140;2023-02-10T09:44:17;100878.10;;;0.80;67.26
64460;BME280;50828;53.756;21.140;2023-02-10T09:49:47;100888.88;;;0.83;67.60
64460;BME280;50828;53.756;21.140;2023-02-10T09:55:00;100889.10;;;0.87;67.74
64460;BME280;50828;53.756;21.140;2023-02-10T10:00:17;100894.74;;;0.95;67.83
64460;BME280;50828;53.756;21.140;2023-02-10T10:05:41;100906.10;;;1.02;67.81
64460;BME280;50828;53.756;21.140;2023-02-10T10:10:54;100917.46;;;1.10;68.04
64460;BME280;50828;53.756;21.140;2023-02-10T10:16:19;100920.15;;;1.17;68.00
64460;BME280;50828;53.756;21.140;2023-02-10T10:21:35;100913.26;;;1.21;67.96
64460;BME280;50828;53.756;21.140;2023-02-10T10:26:53;100915.25;;;1.30;68.06
64460;BME280;50828;53.756;21.140;2023-02-10T10:32:19;100921.23;;;1.38;68.05
64460;BME280;50828;53.756;21.140;2023-02-10T10:37:35;100927.02;;;1.44;68.26
64460;BME280;50828;53.756;21.140;2023-02-10T10:42:45;100923.97;;;1.51;68.00
64460;BME280;50828;53.756;21.140;2023-02-10T10:47:57;100924.20;;;1.56;68.09
64460;BME280;50828;53.756;21.140;2023-02-10T10:53:16;100930.66;;;1.60;68.06
64460;BME280;50828;53.756;21.140;2023-02-10T10:58:28;100923.02;;;1.62;68.16
64460;BME280;50828;53.756;21.140;2023-02-10T11:03:37;100930.34;;;1.64;68.32
64460;BME280;50828;53.756;21.140;2023-02-10T11:08:53;100922.23;;;1.68;68.30
64460;BME280;50828;53.756;21.140;2023-02-10T11:14:02;100925.91;;;1.72;68.23
64460;BME280;50828;53.756;21.140;2023-02-10T11:19:19;100928.21;;;1.77;68.13
64460;BME280;50828;53.756;21.140;2023-02-10T11:24:28;100933.80;;;1.81;68.04
64460;BME280;50828;53.756;21.140;2023-02-10T11:29:45;100939.05;;;1.86;67.97
64460;BME280;50828;53.756;21.140;2023-02-10T11:34:55;100945.15;;;1.88;68.10
64460;BME280;50828;53.756;21.140;2023-02-10T11:40:16;100941.19;;;1.92;67.93
64460;BME280;50828;53.756;21.140;2023-02-10T11:45:27;100947.32;;;1.97;67.81
64460;BME280;50828;53.756;21.140;2023-02-10T11:50:36;100946.51;;;2.05;67.75
64460;BME280;50828;53.756;21.140;2023-02-10T11:55:50;100944.31;;;2.13;67.84
64460;BME280;50828;53.756;21.140;2023-02-10T12:01:09;100937.23;;;2.20;67.61
64460;BME280;50828;53.756;21.140;2023-02-10T12:06:22;100940.59;;;2.27;67.64
64460;BME280;50828;53.756;21.140;2023-02-10T12:11:48;100928.13;;;2.36;67.63
64460;BME280;50828;53.756;21.140;2023-02-10T12:17:05;100925.41;;;2.47;67.57
64460;BME280;50828;53.756;21.140;2023-02-10T12:22:25;100931.38;;;2.54;67.21
64460;BME280;50828;53.756;21.140;2023-02-10T12:27:51;100937.52;;;2.65;67.08
64460;BME280;50828;53.756;21.140;2023-02-10T12:33:19;100933.73;;;2.73;66.92
64460;BME280;50828;53.756;21.140;2023-02-10T12:38:44;100939.36;;;2.85;66.69
64460;BME280;50828;53.756;21.140;2023-02-10T12:44:11;100935.20;;;2.89;66.67
64460;BME280;50828;53.756;21.140;2023-02-10T12:49:31;100942.88;;;2.95;66.53
64460;BME280;50828;53.756;21.140;2023-02-10T12:54:48;100940.81;;;2.99;66.47
64460;BME280;50828;53.756;21.140;2023-02-10T13:00:02;100946.74;;;3.02;66.36
64460;BME280;50828;53.756;21.140;2023-02-10T13:05:14;100951.80;;;3.05;66.39
64460;BME280;50828;53.756;21.140;2023-02-10T13:10:29;100953.02;;;3.06;66.22
64460;BME280;50828;53.756;21.140;2023-02-10T13:15:40;100961.04;;;3.07;66.20
64460;BME280;50828;53.756;21.140;2023-02-10T13:20:58;100970.96;;;3.07;66.06
64460;BME280;50828;53.756;21.140;2023-02-10T13:26:32;100973.05;;;3.09;66.18
64460;BME280;50828;53.756;21.140;2023-02-10T13:31:55;100975.82;;;3.06;66.04
64460;BME280;50828;53.756;21.140;2023-02-10T13:37:08;100978.09;;;3.07;66.29
64460;BME280;50828;53.756;21.140;2023-02-10T13:42:25;100980.69;;;3.02;66.42
64460;BME280;50828;53.756;21.140;2023-02-10T13:47:38;100974.90;;;2.94;66.32
64460;BME280;50828;53.756;21.140;2023-02-10T13:52:53;100987.45;;;2.99;66.62
64460;BME280;50828;53.756;21.140;2023-02-10T13:58:23;100994.94;;;2.98;66.54
64460;BME280;50828;53.756;21.140;2023-02-10T14:03:34;100999.61;;;2.94;66.71
64460;BME280;50828;53.756;21.140;2023-02-10T14:08:43;101002.19;;;2.90;67.02
64460;BME280;50828;53.756;21.140;2023-02-10T14:14:16;101007.92;;;2.87;67.09
64460;BME280;50828;53.756;21.140;2023-02-10T14:19:30;101002.14;;;2.78;67.47
64460;BME280;50828;53.756;21.140;2023-02-10T14:24:44;101006.62;;;2.73;67.52
64460;BME280;50828;53.756;21.140;2023-02-10T14:30:00;101007.27;;;2.67;67.80
64460;BME280;50828;53.756;21.140;2023-02-10T14:35:20;101014.73;;;2.62;67.86
64460;BME280;50828;53.756;21.140;2023-02-10T14:40:34;101024.43;;;2.57;68.05
64460;BME280;50828;53.756;21.140;2023-02-10T14:45:46;101031.88;;;2.53;68.19
64460;BME280;50828;53.756;21.140;2023-02-10T14:51:06;101039.86;;;2.50;68.14
64460;BME280;50828;53.756;21.140;2023-02-10T14:56:22;101035.83;;;2.47;68.36
64460;BME280;50828;53.756;21.140;2023-02-10T15:01:32;101038.77;;;2.44;68.37
64460;BME280;50828;53.756;21.140;2023-02-10T15:06:45;101049.36;;;2.43;68.52
64460;BME280;50828;53.756;21.140;2023-02-10T15:11:55;101054.58;;;2.44;68.55
64460;BME280;50828;53.756;21.140;2023-02-10T15:17:25;101046.56;;;2.41;68.65
64460;BME280;50828;53.756;21.140;2023-02-10T15:22:41;101049.88;;;2.43;68.57
64460;BME280;50828;53.756;21.140;2023-02-10T15:27:50;101056.33;;;2.44;68.70
64460;BME280;50828;53.756;21.140;2023-02-10T15:32:58;101062.23;;;2.44;68.68
64460;BME280;50828;53.756;21.140;2023-02-10T15:38:10;101065.71;;;2.44;68.58
64460;BME280;50828;53.756;21.140;2023-02-10T15:43:23;101065.87;;;2.42;68.68
64460;BME280;50828;53.756;21.140;2023-02-10T15:48:32;101059.46;;;2.44;68.54
64460;BME280;50828;53.756;21.140;2023-02-10T15:53:41;101058.23;;;2.42;68.41
64460;BME280;50828;53.756;21.140;2023-02-10T15:58:50;101054.23;;;2.42;68.52
64460;BME280;50828;53.756;21.140;2023-02-10T16:03:57;101058.04;;;2.41;68.18
64460;BME280;50828;53.756;21.140;2023-02-10T16:09:08;101058.37;;;2.39;68.28
64460;BME280;50828;53.756;21.140;2023-02-10T16:14:17;101061.51;;;2.39;68.19
64460;BME280;50828;53.756;21.140;2023-02-10T16:19:26;101058.02;;;2.38;68.29
64460;BME280;50828;53.756;21.140;2023-02-10T16:24:34;101060.27;;;2.38;68.38
64460;BME280;50828;53.756;21.140;2023-02-10T16:29:42;101067.23;;;2.37;68.25
64460;BME280;50828;53.756;21.140;2023-02-10T16:34:50;101077.64;;;2.36;68.19
64460;BME280;50828;53.756;21.140;2023-02-10T16:39:58;101089.80;;;2.35;68.13
64460;BME280;50828;53.756;21.140;2023-02-10T16:45:06;101096.55;;;2.32;68.47
64460;BME280;50828;53.756;21.140;2023-02-10T16:50:23;101097.94;;;2.32;68.46
64460;BME280;50828;53.756;21.140;2023-02-10T16:55:32;101079.51;;;2.31;68.47
64460;BME280;50828;53.756;21.140;2023-02-10T17:00:40;101073.45;;;2.33;68.61
64460;BME280;50828;53.756;21.140;2023-02-10T17:05:48;101082.86;;;2.36;68.50
64460;BME280;50828;53.756;21.140;2023-02-10T17:10:57;101087.22;;;2.38;68.28
64460;BME280;50828;53.756;21.140;2023-02-10T17:16:06;101090.36;;;2.39;68.34
64460;BME280;50828;53.756;21.140;2023-02-10T17:21:14;101090.21;;;2.42;68.29
64460;BME280;50828;53.756;21.140;2023-02-10T17:26:22;101086.56;;;2.42;68.11
64460;BME280;50828;53.756;21.140;2023-02-10T17:31:29;101090.17;;;2.38;68.12
64460;BME280;50828;53.756;21.140;2023-02-10T17:36:37;101087.18;;;2.33;68.10
64460;BME280;50828;53.756;21.140;2023-02-10T17:41:46;101082.10;;;2.30;68.01
64460;BME280;50828;53.756;21.140;2023-02-10T17:46:54;101082.95;;;2.28;68.14
64460;BME280;50828;53.756;21.140;2023-02-10T17:52:04;101072.14;;;2.23;68.13
64460;BME280;50828;53.756;21.140;2023-02-10T17:57:12;101075.93;;;2.21;67.96
64460;BME280;50828;53.756;21.140;2023-02-10T18:02:21;101077.47;;;2.17;68.14
64460;BME280;50828;53.756;21.140;2023-02-10T18:07:29;101080.55;;;2.13;68.17
64460;BME280;50828;53.756;21.140;2023-02-10T18:12:37;101080.52;;;2.11;68.17
64460;BME280;50828;53.756;21.140;2023-02-10T18:17:45;101067.81;;;2.07;68.37
64460;BME280;50828;53.756;21.140;2023-02-10T18:22:53;101062.38;;;2.02;68.44
64460;BME280;50828;53.756;21.140;2023-02-10T18:28:01;101058.70;;;1.99;68.39
64460;BME280;50828;53.756;21.140;2023-02-10T18:33:10;101058.29;;;1.93;68.58
64460;BME280;50828;53.756;21.140;2023-02-10T18:38:19;101056.00;;;1.90;68.63
64460;BME280;50828;53.756;21.140;2023-02-10T18:43:27;101053.02;;;1.87;68.72
64460;BME280;50828;53.756;21.140;2023-02-10T18:48:35;101047.43;;;1.85;69.01
64460;BME280;50828;53.756;21.140;2023-02-10T18:53:43;101042.54;;;1.82;69.02
64460;BME280;50828;53.756;21.140;2023-02-10T18:58:51;101041.32;;;1.82;69.06
64460;BME280;50828;53.756;21.140;2023-02-10T19:03:59;101044.46;;;1.81;69.32
64460;BME280;50828;53.756;21.140;2023-02-10T19:09:08;101036.10;;;1.81;69.44
64460;BME280;50828;53.756;21.140;2023-02-10T19:14:16;101031.07;;;1.80;69.32
64460;BME280;50828;53.756;21.140;2023-02-10T19:19:27;101024.96;;;1.78;69.34
64460;BME280;50828;53.756;21.140;2023-02-10T19:24:36;101026.00;;;1.78;69.42
64460;BME280;50828;53.756;21.140;2023-02-10T19:29:44;101014.52;;;1.77;69.50
64460;BME280;50828;53.756;21.140;2023-02-10T19:34:52;101004.59;;;1.75;69.77
64460;BME280;50828;53.756;21.140;2023-02-10T19:40:00;100997.98;;;1.73;69.73
64460;BME280;50828;53.756;21.140;2023-02-10T19:45:09;100998.16;;;1.73;69.81
64460;BME280;50828;53.756;21.140;2023-02-10T19:50:18;100999.20;;;1.73;69.77
64460;BME280;50828;53.756;21.140;2023-02-10T19:55:25;100998.88;;;1.75;70.01
64460;BME280;50828;53.756;21.140;2023-02-10T20:00:33;100991.43;;;1.78;69.90
64460;BME280;50828;53.756;21.140;2023-02-10T20:05:41;100989.34;;;1.78;69.87
64460;BME280;50828;53.756;21.140;2023-02-10T20:10:53;100989.70;;;1.78;70.02
64460;BME280;50828;53.756;21.140;2023-02-10T20:16:01;100985.87;;;1.77;70.00
64460;BME280;50828;53.756;21.140;2023-02-10T20:21:13;100985.53;;;1.77;70.12
64460;BME280;50828;53.756;21.140;2023-02-10T20:26:20;100984.85;;;1.79;70.29
64460;BME280;50828;53.756;21.140;2023-02-10T20:31:29;100992.52;;;1.81;70.05
64460;BME280;50828;53.756;21.140;2023-02-10T20:36:37;100991.48;;;1.82;70.01
64460;BME280;50828;53.756;21.140;2023-02-10T20:41:45;100992.70;;;1.84;70.16
64460;BME280;50828;53.756;21.140;2023-02-10T20:46:54;100996.02;;;1.85;70.16
64460;BME280;50828;53.756;21.140;2023-02-10T20:52:02;100992.03;;;1.87;70.20
64460;BME280;50828;53.756;21.140;2023-02-10T20:57:10;100980.58;;;1.87;70.32
64460;BME280;50828;53.756;21.140;2023-02-10T21:02:21;100982.36;;;1.92;70.33
64460;BME280;50828;53.756;21.140;2023-02-10T21:07:31;100980.98;;;1.94;70.28
64460;BME280;50828;53.756;21.140;2023-02-10T21:12:39;100978.58;;;1.96;70.24
64460;BME280;50828;53.756;21.140;2023-02-10T21:17:46;100976.52;;;1.99;70.37
64460;BME280;50828;53.756;21.140;2023-02-10T21:22:54;100966.95;;;1.98;70.21
64460;BME280;50828;53.756;21.140;2023-02-10T21:28:02;100951.87;;;2.01;70.32
64460;BME280;50828;53.756;21.140;2023-02-10T21:33:10;100933.45;;;2.02;70.35
64460;BME280;50828;53.756;21.140;2023-02-10T21:38:18;100925.47;;;2.04;70.32
64460;BME280;50828;53.756;21.140;2023-02-10T21:43:26;100904.77;;;2.00;70.20
64460;BME280;50828;53.756;21.140;2023-02-10T21:48:34;100907.09;;;2.08;70.32
64460;BME280;50828;53.756;21.140;2023-02-10T21:53:42;100898.77;;;2.11;70.30
64460;BME280;50828;53.756;21.140;2023-02-10T21:58:50;100885.91;;;2.11;70.15
64460;BME280;50828;53.756;21.140;2023-02-10T22:03:58;100886.63;;;2.14;70.23
64460;BME280;50828;53.756;21.140;2023-02-10T22:09:07;100876.89;;;2.15;70.08
64460;BME280;50828;53.756;21.140;2023-02-10T22:14:16;100872.04;;;2.15;70.18
64460;BME280;50828;53.756;21.140;2023-02-10T22:19:23;100865.44;;;2.17;70.14
64460;BME280;50828;53.756;21.140;2023-02-10T22:24:31;100856.76;;;2.18;70.14
64460;BME280;50828;53.756;21.140;2023-02-10T22:29:39;100846.16;;;2.18;70.17
64460;BME280;50828;53.756;21.140;2023-02-10T22:34:46;100848.24;;;2.19;70.28
64460;BME280;50828;53.756;21.140;2023-02-10T22:39:55;100839.38;;;2.20;70.18
64460;BME280;50828;53.756;21.140;2023-02-10T22:45:04;100820.45;;;2.21;70.18
64460;BME280;50828;53.756;21.140;2023-02-10T22:50:11;100810.73;;;2.24;70.11
64460;BME280;50828;53.756;21.140;2023-02-10T22:55:19;100796.84;;;2.24;70.16
64460;BME280;50828;53.756;21.140;2023-02-10T23:00:28;100786.59;;;2.27;70.28
64460;BME280;50828;53.756;21.140;2023-02-10T23:05:36;100785.02;;;2.28;70.29
64460;BME280;50828;53.756;21.140;2023-02-10T23:10:44;100778.42;;;2.30;70.07
64460;BME280;50828;53.756;21.140;2023-02-10T23:15:54;100768.18;;;2.31;70.12
64460;BME280;50828;53.756;21.140;2023-02-10T23:21:09;100767.84;;;2.32;70.08
64460;BME280;50828;53.756;21.140;2023-02-10T23:26:22;100753.24;;;2.32;70.44
64460;BME280;50828;53.756;21.140;2023-02-10T23:31:30;100746.80;;;2.32;70.19
64460;BME280;50828;53.756;21.140;2023-02-10T23:36:40;100733.06;;;2.31;70.32
64460;BME280;50828;53.756;21.140;2023-02-10T23:41:49;100728.89;;;2.30;70.42
64460;BME280;50828;53.756;21.140;2023-02-10T23:46:56;100701.42;;;2.31;70.50
64460;BME280;50828;53.756;21.140;2023-02-10T23:52:04;100686.30;;;2.31;70.46
64460;BME280;50828;53.756;21.140;2023-02-10T23:57:13;100670.48;;;2.31;70.67
